createdAt,value
2023-03-27T00:01:12.005Z,44.61
2023-03-27T00:03:40.441Z,44.05
2023-03-27T00:06:11.461Z,44.24
2023-03-27T00:08:38.587Z,44.51
2023-03-27T00:11:08.250Z,44.05
2023-03-27T00:13:35.550Z,44.39
2023-03-27T00:16:03.025Z,44.74
2023-03-27T00:18:29.723Z,44.69
2023-03-27T00:21:00.929Z,44.17
2023-03-27T00:23:31.687Z,44.38
2023-03-27T00:25:59.127Z,44.33
2023-03-27T00:28:28.672Z,44.27
2023-03-27T00:30:57.664Z,44.33
2023-03-27T00:33:25.364Z,44.48
2023-03-27T00:35:52.681Z,44.70
2023-03-27T00:38:19.700Z,44.36
2023-03-27T00:40:49.364Z,44.71
2023-03-27T00:43:26.212Z,44.39
2023-03-27T00:45:58.584Z,44.63
2023-03-27T00:48:25.687Z,44.24
2023-03-27T00:50:53.228Z,45.01
2023-03-27T00:53:26.378Z,44.10
2023-03-27T00:55:58.591Z,44.49
2023-03-27T00:58:31.802Z,44.41
2023-03-27T01:00:58.716Z,45.27
2023-03-27T01:03:31.251Z,44.82
2023-03-27T01:06:01.349Z,44.91
2023-03-27T01:08:33.020Z,45.00
2023-03-27T01:11:09.850Z,45.03
2023-03-27T01:14:14.217Z,45.44
2023-03-27T01:16:55.361Z,45.77
2023-03-27T01:19:59.123Z,45.22
2023-03-27T01:22:53.597Z,45.56
2023-03-27T01:25:57.648Z,44.84
2023-03-27T01:28:32.475Z,44.95
2023-03-27T01:31:30.134Z,45.11
2023-03-27T01:34:38.371Z,45.45
2023-03-27T01:37:24.826Z,45.91
2023-03-27T01:40:09.070Z,45.92
2023-03-27T01:42:50.406Z,45.05
2023-03-27T01:45:25.279Z,45.07
2023-03-27T01:48:25.050Z,45.40
2023-03-27T01:50:57.380Z,45.96
2023-03-27T01:53:29.530Z,45.80
2023-03-27T01:56:25.999Z,45.55
2023-03-27T01:58:59.276Z,45.76
2023-03-27T02:01:33.760Z,45.64
2023-03-27T02:04:03.017Z,45.37
2023-03-27T02:06:41.966Z,46.22
2023-03-27T02:09:18.937Z,45.32
2023-03-27T02:11:52.865Z,45.85
2023-03-27T02:14:23.943Z,45.68
2023-03-27T02:16:54.897Z,45.84
2023-03-27T02:19:25.974Z,45.57
2023-03-27T02:21:52.564Z,45.71
2023-03-27T02:24:19.576Z,45.52
2023-03-27T02:26:49.219Z,45.65
2023-03-27T02:29:55.827Z,46.84
2023-03-27T02:32:41.091Z,45.98
2023-03-27T02:35:33.826Z,45.99
2023-03-27T02:38:14.442Z,46.10
2023-03-27T02:40:51.697Z,46.21
2023-03-27T02:43:42.912Z,46.36
2023-03-27T02:46:12.946Z,46.55
2023-03-27T02:49:06.503Z,46.57
2023-03-27T02:51:43.213Z,46.35
2023-03-27T02:54:15.750Z,46.14
2023-03-27T02:56:47.652Z,46.07
2023-03-27T02:59:22.461Z,46.53
2023-03-27T03:01:49.621Z,46.34
2023-03-27T03:04:41.888Z,46.20
2023-03-27T03:07:11.342Z,46.62
2023-03-27T03:09:40.600Z,45.80
2023-03-27T03:12:07.947Z,46.11
2023-03-27T03:14:39.491Z,46.74
2023-03-27T03:17:06.061Z,46.41
2023-03-27T03:19:32.654Z,46.30
2023-03-27T03:21:59.080Z,46.27
2023-03-27T03:24:27.526Z,46.69
2023-03-27T03:26:54.031Z,47.04
2023-03-27T03:29:20.664Z,46.14
2023-03-27T03:31:47.426Z,46.13
2023-03-27T03:34:18.972Z,47.01
2023-03-27T03:36:50.179Z,46.87
2023-03-27T03:39:18.229Z,46.94
2023-03-27T03:41:44.790Z,46.62
2023-03-27T03:44:11.237Z,46.46
2023-03-27T03:46:38.011Z,46.43
2023-03-27T03:49:07.839Z,46.73
2023-03-27T03:51:35.248Z,47.02
2023-03-27T03:54:02.549Z,46.75
2023-03-27T03:56:30.518Z,46.58
2023-03-27T03:58:57.458Z,47.24
2023-03-27T04:01:23.969Z,47.01
2023-03-27T04:03:50.551Z,47.30
2023-03-27T04:06:25.526Z,46.96
2023-03-27T04:08:53.002Z,47.17
2023-03-27T04:11:19.917Z,46.49
2023-03-27T04:13:46.360Z,46.60
2023-03-27T04:16:12.800Z,46.66
2023-03-27T04:18:41.174Z,46.95
2023-03-27T04:21:14.858Z,46.98
2023-03-27T04:23:42.098Z,46.38
2023-03-27T04:26:12.465Z,46.42
2023-03-27T04:28:39.917Z,46.90
2023-03-27T04:31:08.087Z,46.62
2023-03-27T04:33:39.403Z,46.38
2023-03-27T04:36:08.131Z,46.89
2023-03-27T04:38:36.915Z,47.04
2023-03-27T04:41:04.174Z,46.55
2023-03-27T04:43:30.750Z,47.13
2023-03-27T04:45:57.340Z,46.92
2023-03-27T04:48:23.904Z,47.00
2023-03-27T04:50:50.537Z,47.41
2023-03-27T04:53:17.996Z,46.95
2023-03-27T04:55:45.781Z,46.99
2023-03-27T04:58:12.650Z,47.15
2023-03-27T05:00:40.141Z,46.85
2023-03-27T05:03:06.895Z,46.80
2023-03-27T05:05:34.705Z,47.09
2023-03-27T05:08:01.637Z,46.81
2023-03-27T05:10:27.966Z,47.02
2023-03-27T05:12:56.442Z,47.20
2023-03-27T05:15:24.372Z,47.25
2023-03-27T05:17:54.466Z,46.92
2023-03-27T05:20:22.080Z,47.40
2023-03-27T05:22:49.066Z,47.09
2023-03-27T05:25:15.673Z,46.72
2023-03-27T05:27:46.818Z,47.02
2023-03-27T05:30:16.038Z,46.96
2023-03-27T05:32:51.768Z,47.00
2023-03-27T05:35:20.917Z,47.34
2023-03-27T05:37:49.063Z,47.46
2023-03-27T05:40:17.218Z,47.12
2023-03-27T05:42:46.950Z,47.25
2023-03-27T05:45:14.415Z,47.42
2023-03-27T05:47:58.731Z,47.18
2023-03-27T05:50:33.215Z,47.37
2023-03-27T05:53:10.312Z,47.71
2023-03-27T05:55:38.704Z,47.19
2023-03-27T05:58:10.004Z,47.17
2023-03-27T06:00:42.219Z,47.85
2023-03-27T06:03:10.704Z,47.64
2023-03-27T06:05:40.223Z,47.94
2023-03-27T06:08:13.950Z,47.89
2023-03-27T06:10:43.211Z,47.79
2023-03-27T06:13:13.594Z,48.04
2023-03-27T06:15:42.611Z,47.77
2023-03-27T06:18:10.103Z,48.13
2023-03-27T06:20:38.024Z,48.23
2023-03-27T06:23:09.163Z,47.67
2023-03-27T06:25:37.442Z,48.00
2023-03-27T06:28:07.006Z,47.69
2023-03-27T06:30:33.677Z,48.27
2023-03-27T06:33:00.616Z,48.28
2023-03-27T06:35:34.055Z,48.21
2023-03-27T06:38:04.645Z,48.00
2023-03-27T06:40:35.075Z,48.50
2023-03-27T06:43:07.157Z,47.62
2023-03-27T06:45:51.712Z,47.81
2023-03-27T06:48:21.938Z,47.50
2023-03-27T06:50:51.452Z,47.05
2023-03-27T06:55:48.718Z,47.88
2023-03-27T06:58:16.642Z,47.06
2023-03-27T07:00:43.626Z,47.88
2023-03-27T07:03:11.671Z,47.54
2023-03-27T07:05:40.914Z,47.36
2023-03-27T07:08:22.571Z,47.51
2023-03-27T07:11:03.908Z,48.05
2023-03-27T07:13:38.518Z,47.43
2023-03-27T07:16:05.501Z,47.57
2023-03-27T07:18:32.137Z,47.71
2023-03-27T07:20:58.770Z,47.48
2023-03-27T07:23:25.324Z,47.88
2023-03-27T07:25:52.204Z,47.40
2023-03-27T07:28:20.329Z,47.53
2023-03-27T07:30:46.984Z,47.18
2023-03-27T07:33:14.178Z,47.82
2023-03-27T07:35:45.609Z,47.93
2023-03-27T07:38:12.498Z,47.82
2023-03-27T07:40:40.515Z,47.23
2023-03-27T07:43:07.504Z,47.81
2023-03-27T07:45:35.139Z,47.38
2023-03-27T07:48:09.409Z,47.14
2023-03-27T07:50:36.347Z,47.34
2023-03-27T07:53:04.554Z,47.22
2023-03-27T07:55:31.223Z,47.20
2023-03-27T07:58:02.460Z,47.04
2023-03-27T08:00:31.614Z,46.87
2023-03-27T08:03:10.025Z,45.57
2023-03-27T08:05:37.232Z,46.81
2023-03-27T08:08:04.813Z,46.35
2023-03-27T08:10:31.570Z,46.52
2023-03-27T08:12:58.177Z,46.38
2023-03-27T08:15:25.486Z,45.86
2023-03-27T08:17:54.632Z,45.72
2023-03-27T08:20:23.066Z,45.76
2023-03-27T08:22:52.944Z,45.01
2023-03-27T08:25:22.362Z,45.14
2023-03-27T08:27:49.432Z,45.27
2023-03-27T08:30:17.101Z,44.76
2023-03-27T08:32:44.728Z,44.43
2023-03-27T08:35:12.305Z,44.17
2023-03-27T08:37:39.433Z,43.70
2023-03-27T08:40:13.307Z,43.25
2023-03-27T08:42:42.692Z,43.15
2023-03-27T08:45:19.195Z,42.45
2023-03-27T08:47:53.682Z,42.13
2023-03-27T08:50:41.122Z,42.38
2023-03-27T08:53:19.855Z,42.31
2023-03-27T08:55:46.496Z,42.79
2023-03-27T08:58:19.378Z,42.08
2023-03-27T09:00:56.554Z,42.49
2023-03-27T09:03:31.575Z,41.80
2023-03-27T09:06:34.310Z,41.61
2023-03-27T09:09:11.488Z,41.13
2023-03-27T09:11:50.115Z,41.07
2023-03-27T09:14:32.371Z,43.06
2023-03-27T09:17:05.204Z,41.33
2023-03-27T09:19:44.211Z,40.92
2023-03-27T09:22:17.123Z,41.20
2023-03-27T09:24:49.061Z,41.82
2023-03-27T09:27:29.468Z,41.00
2023-03-27T09:30:19.838Z,40.75
2023-03-27T09:32:54.266Z,40.68
2023-03-27T09:35:21.665Z,41.25
2023-03-27T09:37:54.069Z,41.03
2023-03-27T09:40:33.835Z,40.21
2023-03-27T09:43:08.897Z,40.11
2023-03-27T09:45:40.539Z,40.37
2023-03-27T09:48:15.047Z,39.71
2023-03-27T09:50:47.579Z,39.50
2023-03-27T09:53:19.333Z,39.89
2023-03-27T09:55:52.765Z,39.23
2023-03-27T09:58:35.688Z,38.83
2023-03-27T10:01:15.861Z,39.22
2023-03-27T10:03:48.876Z,39.40
2023-03-27T10:06:30.773Z,40.44
2023-03-27T10:09:02.506Z,39.79
2023-03-27T10:11:33.796Z,39.81
2023-03-27T10:14:09.873Z,39.90
2023-03-27T10:16:43.361Z,38.44
2023-03-27T10:19:31.122Z,37.88
2023-03-27T10:22:03.437Z,37.95
2023-03-27T10:24:44.468Z,37.96
2023-03-27T10:27:27.636Z,37.73
2023-03-27T10:29:54.061Z,39.05
2023-03-27T10:32:45.327Z,37.61
2023-03-27T10:35:28.621Z,38.37
2023-03-27T10:37:55.480Z,39.00
2023-03-27T10:40:26.205Z,38.06
2023-03-27T10:42:56.741Z,38.57
2023-03-27T10:45:23.583Z,38.43
2023-03-27T10:47:57.045Z,37.86
2023-03-27T10:50:57.308Z,37.93
2023-03-27T10:53:37.217Z,38.04
2023-03-27T10:56:12.381Z,38.13
2023-03-27T10:59:00.009Z,37.72
2023-03-27T11:01:34.532Z,38.12
2023-03-27T11:04:36.554Z,37.76
2023-03-27T11:07:06.475Z,38.65
2023-03-27T11:09:38.447Z,38.02
2023-03-27T11:12:09.690Z,37.82
2023-03-27T11:15:07.780Z,36.91
2023-03-27T11:17:51.131Z,36.60
2023-03-27T11:20:27.865Z,36.83
2023-03-27T11:23:04.677Z,36.22
2023-03-27T11:25:46.801Z,36.09
2023-03-27T11:28:52.869Z,36.59
2023-03-27T11:31:38.231Z,36.79
2023-03-27T11:34:28.994Z,36.81
2023-03-27T11:37:11.223Z,37.38
2023-03-27T11:39:48.496Z,38.09
2023-03-27T11:42:18.958Z,37.64
2023-03-27T11:44:45.593Z,38.36
2023-03-27T11:47:27.704Z,37.72
2023-03-27T11:50:18.990Z,37.91
2023-03-27T11:53:19.423Z,36.57
2023-03-27T11:56:13.264Z,36.97
2023-03-27T11:59:16.869Z,36.83
2023-03-27T12:02:32.858Z,36.57
2023-03-27T12:05:06.477Z,36.87
2023-03-27T12:08:07.441Z,37.18
2023-03-27T12:10:36.138Z,37.44
2023-03-27T12:13:41.280Z,37.65
2023-03-27T12:16:30.936Z,37.57
2023-03-27T12:19:03.898Z,38.19
2023-03-27T12:21:39.139Z,38.09
2023-03-27T12:24:23.997Z,38.04
2023-03-27T12:26:50.636Z,38.18
2023-03-27T12:29:39.234Z,37.95
2023-03-27T12:32:15.728Z,38.74
2023-03-27T12:35:07.400Z,37.79
2023-03-27T12:37:56.121Z,37.81
2023-03-27T12:40:28.192Z,37.15
2023-03-27T12:43:05.499Z,36.54
2023-03-27T12:48:09.865Z,37.00
2023-03-27T12:50:57.846Z,35.69
2023-03-27T12:53:27.351Z,36.25
2023-03-27T12:56:16.544Z,36.33
2023-03-27T12:58:48.351Z,36.98
2023-03-27T13:01:52.210Z,36.67
2023-03-27T13:04:48.285Z,37.48
2023-03-27T13:07:45.940Z,37.24
2023-03-27T13:10:20.507Z,37.75
2023-03-27T13:13:05.354Z,37.66
2023-03-27T13:15:52.607Z,38.39
2023-03-27T13:18:34.547Z,38.07
2023-03-27T13:21:21.423Z,38.44
2023-03-27T13:24:10.073Z,38.15
2023-03-27T13:27:00.934Z,38.23
2023-03-27T13:29:32.680Z,39.02
2023-03-27T13:32:06.010Z,38.31
2023-03-27T13:34:36.537Z,38.07
2023-03-27T13:37:14.003Z,37.28
2023-03-27T13:39:48.115Z,37.76
2023-03-27T13:42:24.210Z,36.91
2023-03-27T13:45:04.200Z,36.65
2023-03-27T13:47:33.601Z,36.34
2023-03-27T13:50:06.122Z,36.68
2023-03-27T13:52:56.940Z,36.44
2023-03-27T13:55:42.258Z,37.39
2023-03-27T13:58:21.476Z,36.72
2023-03-27T14:01:22.003Z,36.70
2023-03-27T14:04:13.723Z,36.65
2023-03-27T14:07:21.736Z,36.98
2023-03-27T14:09:48.205Z,37.54
2023-03-27T14:12:20.706Z,36.67
2023-03-27T14:14:59.339Z,37.71
2023-03-27T14:17:28.663Z,36.56
2023-03-27T14:20:19.120Z,36.46
2023-03-27T14:23:03.600Z,37.09
2023-03-27T14:25:34.444Z,37.49
2023-03-27T14:28:01.304Z,37.31
2023-03-27T14:30:41.610Z,36.88
2023-03-27T14:33:10.091Z,37.12
2023-03-27T14:35:36.617Z,37.24
2023-03-27T14:38:25.400Z,36.87
2023-03-27T14:40:57.186Z,36.90
2023-03-27T14:43:27.478Z,36.64
2023-03-27T14:45:58.626Z,36.51
2023-03-27T14:48:33.266Z,37.16
2023-03-27T14:51:06.283Z,36.76
2023-03-27T14:53:36.318Z,37.82
2023-03-27T14:56:11.672Z,38.00
2023-03-27T14:58:43.830Z,37.90
2023-03-27T15:01:10.675Z,38.17
2023-03-27T15:03:38.749Z,38.18
2023-03-27T15:06:16.996Z,38.43
2023-03-27T15:08:50.821Z,38.14
2023-03-27T15:11:21.567Z,38.20
2023-03-27T15:13:48.570Z,38.02
2023-03-27T15:16:20.737Z,38.96
2023-03-27T15:18:58.885Z,38.46
2023-03-27T15:21:39.069Z,38.88
2023-03-27T15:24:13.701Z,38.15
2023-03-27T15:26:40.998Z,37.83
2023-03-27T15:29:17.919Z,36.95
2023-03-27T15:31:48.966Z,36.76
2023-03-27T15:34:51.476Z,35.67
2023-03-27T15:37:25.382Z,35.62
2023-03-27T15:39:57.957Z,35.31
2023-03-27T15:42:24.821Z,36.59
2023-03-27T15:44:51.430Z,36.06
2023-03-27T15:47:26.119Z,35.59
2023-03-27T15:50:14.295Z,35.55
2023-03-27T15:52:48.204Z,35.33
2023-03-27T15:55:32.286Z,35.32
2023-03-27T15:57:59.752Z,35.97
2023-03-27T16:00:28.324Z,35.52
2023-03-27T16:02:55.605Z,36.01
2023-03-27T16:05:22.002Z,36.35
2023-03-27T16:07:49.025Z,35.98
2023-03-27T16:10:29.980Z,37.27
2023-03-27T16:13:03.044Z,37.58
2023-03-27T16:15:34.375Z,37.38
2023-03-27T16:18:17.479Z,38.76
2023-03-27T16:20:44.873Z,38.11
2023-03-27T16:23:11.871Z,38.26
2023-03-27T16:25:39.009Z,38.04
2023-03-27T16:28:08.996Z,38.53
2023-03-27T16:30:39.184Z,38.99
2023-03-27T16:33:16.983Z,39.40
2023-03-27T16:35:45.303Z,39.10
2023-03-27T16:38:13.605Z,39.29
2023-03-27T16:40:40.013Z,39.31
2023-03-27T16:43:07.139Z,39.19
2023-03-27T16:45:33.862Z,38.90
2023-03-27T16:48:00.324Z,39.45
2023-03-27T16:50:30.804Z,39.11
2023-03-27T16:52:57.697Z,39.23
2023-03-27T16:55:25.022Z,38.87
2023-03-27T16:57:52.423Z,38.97
2023-03-27T17:00:20.026Z,38.94
2023-03-27T17:02:47.261Z,38.57
2023-03-27T17:05:14.495Z,38.44
2023-03-27T17:07:46.683Z,38.08
2023-03-27T17:10:13.115Z,39.12
2023-03-27T17:12:39.513Z,38.70
2023-03-27T17:15:06.737Z,38.54
2023-03-27T17:17:33.105Z,38.75
2023-03-27T17:20:00.356Z,38.49
2023-03-27T17:22:29.548Z,39.43
2023-03-27T17:24:57.701Z,38.62
2023-03-27T17:27:26.421Z,39.42
2023-03-27T17:29:53.059Z,39.83
2023-03-27T17:32:19.416Z,39.77
2023-03-27T17:34:45.794Z,39.44
2023-03-27T17:37:12.469Z,40.04
2023-03-27T17:39:39.203Z,40.05
2023-03-27T17:42:06.483Z,39.70
2023-03-27T17:44:33.036Z,39.94
2023-03-27T17:47:00.492Z,40.14
2023-03-27T17:49:27.837Z,40.14
2023-03-27T17:51:54.182Z,40.08
2023-03-27T17:54:20.554Z,39.78
2023-03-27T17:56:46.902Z,40.16
2023-03-27T17:59:13.272Z,39.68
2023-03-27T18:01:39.785Z,39.83
2023-03-27T18:04:06.678Z,40.19
2023-03-27T18:06:33.354Z,40.20
2023-03-27T18:08:59.815Z,40.28
2023-03-27T18:11:26.562Z,40.23
2023-03-27T18:13:53.231Z,40.00
2023-03-27T18:16:21.579Z,40.45
2023-03-27T18:18:48.238Z,40.16
2023-03-27T18:21:16.211Z,40.26
2023-03-27T18:23:46.061Z,40.50
2023-03-27T18:26:13.951Z,40.51
2023-03-27T18:28:40.627Z,40.72
2023-03-27T18:31:09.702Z,40.20
2023-03-27T18:33:36.896Z,40.12
2023-03-27T18:36:05.925Z,40.16
2023-03-27T18:38:32.569Z,40.31
2023-03-27T18:41:00.087Z,40.31
2023-03-27T18:43:26.733Z,40.65
2023-03-27T18:46:01.544Z,40.93
2023-03-27T18:48:30.307Z,40.90
2023-03-27T18:50:57.821Z,41.50
2023-03-27T18:53:25.480Z,40.58
2023-03-27T18:55:53.054Z,40.33
2023-03-27T18:58:21.372Z,40.32
2023-03-27T19:00:47.979Z,40.61
2023-03-27T19:03:17.803Z,40.66
2023-03-27T19:05:44.982Z,40.89
2023-03-27T19:08:11.781Z,40.81
2023-03-27T19:10:38.506Z,40.97
2023-03-27T19:13:05.370Z,40.67
2023-03-27T19:15:32.250Z,40.76
2023-03-27T19:17:59.118Z,40.57
2023-03-27T19:20:25.680Z,40.20
2023-03-27T19:22:52.373Z,40.39
2023-03-27T19:25:19.082Z,40.07
2023-03-27T19:27:45.457Z,40.33
2023-03-27T19:30:14.073Z,40.18
2023-03-27T19:32:41.026Z,40.32
2023-03-27T19:35:07.775Z,40.31
2023-03-27T19:37:35.494Z,39.97
2023-03-27T19:40:02.234Z,39.53
2023-03-27T19:42:29.424Z,39.82
2023-03-27T19:44:56.135Z,39.58
2023-03-27T19:47:22.694Z,39.94
2023-03-27T19:49:49.138Z,39.73
2023-03-27T19:52:16.830Z,39.79
2023-03-27T19:54:43.438Z,39.49
2023-03-27T19:57:10.097Z,39.91
2023-03-27T19:59:36.849Z,40.00
2023-03-27T20:02:04.366Z,39.92
2023-03-27T20:04:31.026Z,39.87
2023-03-27T20:06:58.901Z,40.06
2023-03-27T20:09:25.710Z,39.79
2023-03-27T20:11:53.478Z,40.12
2023-03-27T20:14:19.793Z,40.10
2023-03-27T20:16:46.788Z,40.21
2023-03-27T20:19:15.803Z,40.09
2023-03-27T20:21:43.689Z,39.92
2023-03-27T20:24:13.152Z,39.95
2023-03-27T20:26:41.873Z,39.86
2023-03-27T20:29:10.983Z,40.06
2023-03-27T20:31:38.194Z,40.53
2023-03-27T20:34:06.470Z,40.40
2023-03-27T20:36:34.845Z,40.23
2023-03-27T20:39:04.564Z,40.54
2023-03-27T20:41:30.911Z,40.75
2023-03-27T20:43:58.840Z,40.21
2023-03-27T20:46:30.114Z,40.76
2023-03-27T20:48:57.440Z,40.35
2023-03-27T20:51:24.193Z,40.95
2023-03-27T20:53:55.981Z,40.77
2023-03-27T20:56:23.115Z,40.95
2023-03-27T20:58:49.486Z,40.57
2023-03-27T21:01:19.216Z,40.40
2023-03-27T21:03:46.401Z,40.42
2023-03-27T21:06:16.179Z,41.17
2023-03-27T21:08:43.066Z,40.52
2023-03-27T21:11:10.500Z,41.08
2023-03-27T21:13:37.224Z,40.77
2023-03-27T21:16:04.423Z,41.28
2023-03-27T21:18:30.877Z,40.77
2023-03-27T21:20:57.490Z,41.50
2023-03-27T21:23:24.067Z,41.53
2023-03-27T21:25:53.495Z,41.36
2023-03-27T21:28:19.852Z,40.64
2023-03-27T21:30:48.996Z,40.75
2023-03-27T21:33:16.322Z,41.36
2023-03-27T21:35:48.222Z,41.52
2023-03-27T21:38:16.344Z,40.84
2023-03-27T21:40:43.069Z,41.61
2023-03-27T21:43:09.552Z,41.11
2023-03-27T21:45:36.780Z,41.16
2023-03-27T21:48:03.654Z,41.00
2023-03-27T21:50:30.304Z,41.43
2023-03-27T21:52:57.218Z,41.61
2023-03-27T21:55:24.126Z,41.65
2023-03-27T21:57:51.823Z,41.31
2023-03-27T22:00:18.835Z,41.46
2023-03-27T22:02:45.509Z,41.40
2023-03-27T22:05:11.885Z,41.06
2023-03-27T22:07:38.393Z,41.43
2023-03-27T22:10:06.463Z,41.36
2023-03-27T22:12:36.747Z,42.02
2023-03-27T22:15:04.837Z,41.38
2023-03-27T22:17:31.395Z,41.59
2023-03-27T22:19:59.088Z,41.43
2023-03-27T22:22:26.408Z,41.50
2023-03-27T22:24:52.999Z,41.57
2023-03-27T22:27:19.352Z,41.79
2023-03-27T22:29:45.849Z,41.81
2023-03-27T22:32:12.219Z,42.22
2023-03-27T22:34:38.627Z,42.18
2023-03-27T22:37:06.508Z,41.85
2023-03-27T22:39:33.207Z,41.70
2023-03-27T22:41:59.639Z,41.98
2023-03-27T22:44:26.436Z,41.82
2023-03-27T22:46:53.074Z,42.34
2023-03-27T22:49:19.803Z,41.97
2023-03-27T22:51:46.425Z,41.84
2023-03-27T22:54:12.777Z,42.59
2023-03-27T22:56:39.278Z,42.23
2023-03-27T22:59:06.233Z,41.73
2023-03-27T23:01:32.931Z,41.84
2023-03-27T23:03:59.440Z,42.13
2023-03-27T23:06:26.441Z,42.34
2023-03-27T23:08:53.162Z,42.76
2023-03-27T23:11:20.249Z,42.50
2023-03-27T23:13:47.620Z,42.03
2023-03-27T23:16:14.470Z,42.27
2023-03-27T23:18:41.598Z,42.18
2023-03-27T23:21:12.751Z,42.72
2023-03-27T23:23:40.496Z,42.87
2023-03-27T23:26:08.000Z,42.95
2023-03-27T23:28:37.244Z,43.12
2023-03-27T23:31:06.766Z,42.32
2023-03-27T23:33:36.431Z,42.70
2023-03-27T23:36:09.203Z,42.25
2023-03-27T23:38:37.208Z,42.46
2023-03-27T23:41:05.231Z,42.19
2023-03-27T23:43:32.271Z,43.02
2023-03-27T23:45:59.540Z,42.93
2023-03-27T23:48:30.276Z,42.18
2023-03-27T23:50:58.950Z,42.95
2023-03-27T23:53:27.409Z,42.76
2023-03-27T23:55:56.130Z,43.33
2023-03-27T23:58:23.514Z,42.32
